sensor_id;sensor_type;location;lat;lon;timestamp;pressure;altitude;pressure_sealevel;temperature;humidity
43770;BME280;6597;52.218;9.882;2023-06-19T00:02:22;100328.53;;;19.95;69.97
43770;BME280;6597;52.218;9.882;2023-06-19T00:04:48;100325.28;;;19.92;70.45
43770;BME280;6597;52.218;9.882;2023-06-19T00:07:16;100327.47;;;19.86;70.58
43770;BME280;6597;52.218;9.882;2023-06-19T00:09:44;100323.22;;;19.84;70.92
43770;BME280;6597;52.218;9.882;2023-06-19T00:12:10;100320.91;;;19.79;71.35
43770;BME280;6597;52.218;9.882;2023-06-19T00:14:37;100321.75;;;19.80;71.42
43770;BME280;6597;52.218;9.882;2023-06-19T00:17:04;100325.38;;;19.79;71.91
43770;BME280;6597;52.218;9.882;2023-06-19T00:19:32;100315.84;;;19.76;71.77
43770;BME280;6597;52.218;9.882;2023-06-19T00:22:01;100317.19;;;19.71;71.88
43770;BME280;6597;52.218;9.882;2023-06-19T00:24:29;100322.16;;;19.64;72.00
43770;BME280;6597;52.218;9.882;2023-06-19T00:26:56;100318.16;;;19.58;72.69
43770;BME280;6597;52.218;9.882;2023-06-19T00:29:28;100316.72;;;19.54;72.79
43770;BME280;6597;52.218;9.882;2023-06-19T00:31:56;100313.22;;;19.54;72.91
43770;BME280;6597;52.218;9.882;2023-06-19T00:34:23;100314.19;;;19.53;72.91
43770;BME280;6597;52.218;9.882;2023-06-19T00:36:49;100311.59;;;19.51;72.91
43770;BME280;6597;52.218;9.882;2023-06-19T00:39:16;100304.47;;;19.52;72.85
43770;BME280;6597;52.218;9.882;2023-06-19T00:41:44;100308.94;;;19.51;72.69
43770;BME280;6597;52.218;9.882;2023-06-19T00:44:13;100304.47;;;19.52;72.54
43770;BME280;6597;52.218;9.882;2023-06-19T00:46:40;100297.41;;;19.51;72.50
43770;BME280;6597;52.218;9.882;2023-06-19T00:49:07;100302.66;;;19.52;72.29
43770;BME280;6597;52.218;9.882;2023-06-19T00:51:34;100295.63;;;19.51;72.22
43770;BME280;6597;52.218;9.882;2023-06-19T00:54:01;100298.50;;;19.48;72.37
43770;BME280;6597;52.218;9.882;2023-06-19T00:56:28;100291.00;;;19.42;72.60
43770;BME280;6597;52.218;9.882;2023-06-19T00:58:58;100280.63;;;19.39;72.58
43770;BME280;6597;52.218;9.882;2023-06-19T01:01:25;100282.31;;;19.40;72.73
43770;BME280;6597;52.218;9.882;2023-06-19T01:03:52;100282.31;;;19.40;72.68
43770;BME280;6597;52.218;9.882;2023-06-19T01:06:22;100276.97;;;19.40;72.73
43770;BME280;6597;52.218;9.882;2023-06-19T01:08:53;100278.91;;;19.38;72.95
43770;BME280;6597;52.218;9.882;2023-06-19T01:11:28;100271.91;;;19.37;73.09
43770;BME280;6597;52.218;9.882;2023-06-19T01:14:00;100271.91;;;19.37;73.20
43770;BME280;6597;52.218;9.882;2023-06-19T01:16:29;100267.91;;;19.32;73.66
43770;BME280;6597;52.218;9.882;2023-06-19T01:18:57;100273.25;;;19.32;73.20
43770;BME280;6597;52.218;9.882;2023-06-19T01:21:24;100268.66;;;19.34;73.04
43770;BME280;6597;52.218;9.882;2023-06-19T01:23:52;100260.41;;;19.37;73.13
43770;BME280;6597;52.218;9.882;2023-06-19T01:26:21;100270.69;;;19.41;73.37
43770;BME280;6597;52.218;9.882;2023-06-19T01:28:51;100261.97;;;19.39;73.97
43770;BME280;6597;52.218;9.882;2023-06-19T01:31:21;100263.81;;;19.39;74.39
43770;BME280;6597;52.218;9.882;2023-06-19T01:33:52;100268.78;;;19.32;74.71
43770;BME280;6597;52.218;9.882;2023-06-19T01:36:20;100266.22;;;19.31;74.66
43770;BME280;6597;52.218;9.882;2023-06-19T01:38:48;100251.34;;;19.28;74.40
43770;BME280;6597;52.218;9.882;2023-06-19T01:41:17;100260.06;;;19.30;74.13
43770;BME280;6597;52.218;9.882;2023-06-19T01:43:46;100250.63;;;19.26;73.83
43770;BME280;6597;52.218;9.882;2023-06-19T01:46:12;100258.97;;;19.33;74.20
43770;BME280;6597;52.218;9.882;2023-06-19T01:48:39;100264.53;;;19.30;75.36
43770;BME280;6597;52.218;9.882;2023-06-19T01:51:06;100263.47;;;19.21;75.22
43770;BME280;6597;52.218;9.882;2023-06-19T01:53:32;100267.19;;;19.18;75.44
43770;BME280;6597;52.218;9.882;2023-06-19T01:56:00;100269.59;;;19.10;75.50
43770;BME280;6597;52.218;9.882;2023-06-19T01:58:30;100265.59;;;19.05;75.97
43770;BME280;6597;52.218;9.882;2023-06-19T02:00:57;100267.78;;;19.00;75.81
43770;BME280;6597;52.218;9.882;2023-06-19T02:03:23;100270.81;;;18.95;75.93
43770;BME280;6597;52.218;9.882;2023-06-19T02:05:52;100263.69;;;18.95;75.90
43770;BME280;6597;52.218;9.882;2023-06-19T02:08:19;100276.72;;;18.99;76.36
43770;BME280;6597;52.218;9.882;2023-06-19T02:10:46;100274.78;;;19.01;76.62
43770;BME280;6597;52.218;9.882;2023-06-19T02:13:12;100273.84;;;19.02;76.64
43770;BME280;6597;52.218;9.882;2023-06-19T02:15:40;100271.78;;;19.05;77.54
43770;BME280;6597;52.218;9.882;2023-06-19T02:18:08;100269.84;;;19.07;77.75
43770;BME280;6597;52.218;9.882;2023-06-19T02:20:35;100269.00;;;19.07;78.11
43770;BME280;6597;52.218;9.882;2023-06-19T02:23:01;100256.78;;;19.04;77.99
43770;BME280;6597;52.218;9.882;2023-06-19T02:25:29;100256.78;;;19.04;77.58
43770;BME280;6597;52.218;9.882;2023-06-19T02:27:55;100253.16;;;19.05;76.73
43770;BME280;6597;52.218;9.882;2023-06-19T02:30:22;100250.63;;;19.04;76.34
43770;BME280;6597;52.218;9.882;2023-06-19T02:32:50;100243.47;;;19.04;76.62
43770;BME280;6597;52.218;9.882;2023-06-19T02:35:18;100228.59;;;19.02;77.86
43770;BME280;6597;52.218;9.882;2023-06-19T02:37:45;100226.19;;;18.99;78.82
43770;BME280;6597;52.218;9.882;2023-06-19T02:40:13;100239.72;;;18.95;78.57
43770;BME280;6597;52.218;9.882;2023-06-19T02:42:39;100238.28;;;18.91;79.04
43770;BME280;6597;52.218;9.882;2023-06-19T02:45:07;100230.03;;;18.83;79.27
43770;BME280;6597;52.218;9.882;2023-06-19T02:47:33;100236.56;;;18.79;79.35
43770;BME280;6597;52.218;9.882;2023-06-19T02:50:03;100240.41;;;18.75;78.86
43770;BME280;6597;52.218;9.882;2023-06-19T02:52:30;100234.25;;;18.75;78.56
43770;BME280;6597;52.218;9.882;2023-06-19T02:54:58;100228.81;;;18.76;77.60
43770;BME280;6597;52.218;9.882;2023-06-19T02:57:25;100231.97;;;18.81;77.37
43770;BME280;6597;52.218;9.882;2023-06-19T02:59:51;100223.75;;;18.84;77.15
43770;BME280;6597;52.218;9.882;2023-06-19T03:02:18;100225.09;;;18.90;77.04
43770;BME280;6597;52.218;9.882;2023-06-19T03:04:45;100216.66;;;18.96;76.95
43770;BME280;6597;52.218;9.882;2023-06-19T03:07:12;100218.94;;;19.01;77.30
43770;BME280;6597;52.218;9.882;2023-06-19T03:09:40;100219.78;;;19.01;77.07
43770;BME280;6597;52.218;9.882;2023-06-19T03:12:08;100218.81;;;19.02;77.09
43770;BME280;6597;52.218;9.882;2023-06-19T03:14:35;100215.91;;;19.05;76.99
43770;BME280;6597;52.218;9.882;2023-06-19T03:17:01;100221.97;;;19.07;77.02
43770;BME280;6597;52.218;9.882;2023-06-19T03:19:29;100225.59;;;19.06;77.35
43770;BME280;6597;52.218;9.882;2023-06-19T03:21:55;100226.44;;;19.07;77.34
43770;BME280;6597;52.218;9.882;2023-06-19T03:24:23;100231.75;;;19.07;76.92
43770;BME280;6597;52.218;9.882;2023-06-19T03:26:53;100230.91;;;19.06;77.32
43770;BME280;6597;52.218;9.882;2023-06-19T03:29:20;100243.34;;;19.06;77.02
43770;BME280;6597;52.218;9.882;2023-06-19T03:31:52;100229.09;;;19.07;77.04
43770;BME280;6597;52.218;9.882;2023-06-19T03:34:21;100238.03;;;19.06;76.72
43770;BME280;6597;52.218;9.882;2023-06-19T03:36:50;100237.06;;;19.07;76.31
43770;BME280;6597;52.218;9.882;2023-06-19T03:39:16;100231.88;;;19.05;75.81
43770;BME280;6597;52.218;9.882;2023-06-19T03:41:45;100236.34;;;19.05;76.25
43770;BME280;6597;52.218;9.882;2023-06-19T03:44:11;100242.63;;;19.04;76.45
43770;BME280;6597;52.218;9.882;2023-06-19T03:46:38;100234.66;;;19.04;76.86
43770;BME280;6597;52.218;9.882;2023-06-19T03:49:04;100234.41;;;19.07;77.36
43770;BME280;6597;52.218;9.882;2023-06-19T03:51:32;100230.06;;;19.06;78.50
43770;BME280;6597;52.218;9.882;2023-06-19T03:53:58;100246.03;;;19.06;78.65
43770;BME280;6597;52.218;9.882;2023-06-19T03:56:25;100246.03;;;19.06;79.23
43770;BME280;6597;52.218;9.882;2023-06-19T03:58:53;100248.81;;;19.04;79.20
43770;BME280;6597;52.218;9.882;2023-06-19T04:01:19;100245.28;;;19.04;79.47
43770;BME280;6597;52.218;9.882;2023-06-19T04:03:47;100245.28;;;19.04;79.58
43770;BME280;6597;52.218;9.882;2023-06-19T04:06:14;100251.81;;;19.00;79.88
43770;BME280;6597;52.218;9.882;2023-06-19T04:08:40;100251.09;;;18.98;80.18
43770;BME280;6597;52.218;9.882;2023-06-19T04:11:11;100250.00;;;19.00;80.29
43770;BME280;6597;52.218;9.882;2023-06-19T04:13:37;100254.25;;;19.03;80.28
43770;BME280;6597;52.218;9.882;2023-06-19T04:16:06;100247.00;;;19.05;80.09
43770;BME280;6597;52.218;9.882;2023-06-19T04:18:33;100254.97;;;19.05;80.24
43770;BME280;6597;52.218;9.882;2023-06-19T04:21:00;100251.59;;;19.03;80.06
43770;BME280;6597;52.218;9.882;2023-06-19T04:23:26;100253.28;;;19.04;79.94
43770;BME280;6597;52.218;9.882;2023-06-19T04:25:53;100251.59;;;19.03;79.59
43770;BME280;6597;52.218;9.882;2023-06-19T04:28:20;100255.22;;;19.02;79.80
43770;BME280;6597;52.218;9.882;2023-06-19T04:30:46;100249.16;;;19.00;80.06
43770;BME280;6597;52.218;9.882;2023-06-19T04:33:14;100257.38;;;18.96;80.04
43770;BME280;6597;52.218;9.882;2023-06-19T04:35:41;100268.88;;;18.97;80.14
43770;BME280;6597;52.218;9.882;2023-06-19T04:38:08;100261.00;;;18.95;80.05
43770;BME280;6597;52.218;9.882;2023-06-19T04:40:35;100269.00;;;18.95;79.67
43770;BME280;6597;52.218;9.882;2023-06-19T04:43:01;100269.84;;;18.96;79.72
43770;BME280;6597;52.218;9.882;2023-06-19T04:45:31;100269.72;;;18.98;79.67
43770;BME280;6597;52.218;9.882;2023-06-19T04:47:57;100266.69;;;19.02;79.41
43770;BME280;6597;52.218;9.882;2023-06-19T04:50:29;100264.63;;;19.06;79.16
43770;BME280;6597;52.218;9.882;2023-06-19T04:52:56;100269.25;;;19.04;79.62
43770;BME280;6597;52.218;9.882;2023-06-19T04:55:23;100272.00;;;19.02;80.09
43770;BME280;6597;52.218;9.882;2023-06-19T04:57:50;100265.25;;;18.98;80.78
43770;BME280;6597;52.218;9.882;2023-06-19T05:00:17;100270.09;;;18.93;81.12
43770;BME280;6597;52.218;9.882;2023-06-19T05:02:45;100259.56;;;18.91;81.48
43770;BME280;6597;52.218;9.882;2023-06-19T05:05:12;100260.13;;;18.84;80.88
43770;BME280;6597;52.218;9.882;2023-06-19T05:07:41;100268.34;;;18.81;81.13
43770;BME280;6597;52.218;9.882;2023-06-19T05:10:08;100269.44;;;18.78;81.35
43770;BME280;6597;52.218;9.882;2023-06-19T05:12:35;100265.09;;;18.77;80.63
43770;BME280;6597;52.218;9.882;2023-06-19T05:15:02;100267.25;;;18.83;80.41
43770;BME280;6597;52.218;9.882;2023-06-19T05:17:29;100275.75;;;18.88;80.12
43770;BME280;6597;52.218;9.882;2023-06-19T05:19:55;100280.00;;;18.91;80.28
43770;BME280;6597;52.218;9.882;2023-06-19T05:22:22;100276.00;;;18.96;80.02
43770;BME280;6597;52.218;9.882;2023-06-19T05:24:50;100282.06;;;18.99;80.63
43770;BME280;6597;52.218;9.882;2023-06-19T05:27:17;100279.88;;;19.04;80.40
43770;BME280;6597;52.218;9.882;2023-06-19T05:29:43;100277.94;;;19.06;80.12
43770;BME280;6597;52.218;9.882;2023-06-19T05:32:10;100285.56;;;19.10;79.98
43770;BME280;6597;52.218;9.882;2023-06-19T05:34:36;100283.63;;;19.12;79.27
43770;BME280;6597;52.218;9.882;2023-06-19T05:37:03;100293.19;;;19.15;77.97
43770;BME280;6597;52.218;9.882;2023-06-19T05:39:30;100302.28;;;19.23;77.37
43770;BME280;6597;52.218;9.882;2023-06-19T05:41:58;100301.69;;;19.31;76.71
43770;BME280;6597;52.218;9.882;2023-06-19T05:44:24;100300.34;;;19.37;76.18
43770;BME280;6597;52.218;9.882;2023-06-19T05:46:51;100301.66;;;19.42;75.96
43770;BME280;6597;52.218;9.882;2023-06-19T05:49:17;100298.75;;;19.45;76.61
43770;BME280;6597;52.218;9.882;2023-06-19T05:51:44;100303.00;;;19.48;77.17
43770;BME280;6597;52.218;9.882;2023-06-19T05:54:10;100303.72;;;19.50;77.78
43770;BME280;6597;52.218;9.882;2023-06-19T05:56:37;100303.72;;;19.50;78.24
43770;BME280;6597;52.218;9.882;2023-06-19T05:59:05;100299.06;;;19.53;78.55
43770;BME280;6597;52.218;9.882;2023-06-19T06:01:31;100302.44;;;19.55;79.11
43770;BME280;6597;52.218;9.882;2023-06-19T06:03:58;100292.38;;;19.59;79.05
43770;BME280;6597;52.218;9.882;2023-06-19T06:06:26;100303.13;;;19.69;78.57
43770;BME280;6597;52.218;9.882;2023-06-19T06:08:53;100301.16;;;19.82;78.52
43770;BME280;6597;52.218;9.882;2023-06-19T06:11:21;100298.63;;;19.92;78.45
43770;BME280;6597;52.218;9.882;2023-06-19T06:13:48;100290.97;;;19.98;79.20
43770;BME280;6597;52.218;9.882;2023-06-19T06:16:16;100306.66;;;20.12;79.51
43770;BME280;6597;52.218;9.882;2023-06-19T06:18:44;100300.47;;;20.23;79.59
43770;BME280;6597;52.218;9.882;2023-06-19T06:21:10;100306.88;;;20.32;80.01
43770;BME280;6597;52.218;9.882;2023-06-19T06:23:38;100301.03;;;20.38;79.83
43770;BME280;6597;52.218;9.882;2023-06-19T06:26:04;100312.53;;;20.38;79.91
43770;BME280;6597;52.218;9.882;2023-06-19T06:28:31;100307.69;;;20.43;80.05
43770;BME280;6597;52.218;9.882;2023-06-19T06:30:58;100317.88;;;20.49;80.56
43770;BME280;6597;52.218;9.882;2023-06-19T06:33:25;100312.28;;;20.53;80.36
43770;BME280;6597;52.218;9.882;2023-06-19T06:35:54;100316.75;;;20.52;80.68
43770;BME280;6597;52.218;9.882;2023-06-19T06:38:21;100327.31;;;20.54;80.39
43770;BME280;6597;52.218;9.882;2023-06-19T06:40:47;100335.75;;;20.59;80.16
43770;BME280;6597;52.218;9.882;2023-06-19T06:43:14;100333.28;;;20.67;80.20
43770;BME280;6597;52.218;9.882;2023-06-19T06:45:40;100343.97;;;20.67;79.76
43770;BME280;6597;52.218;9.882;2023-06-19T06:48:07;100328.41;;;20.72;78.98
43770;BME280;6597;52.218;9.882;2023-06-19T06:50:35;100336.88;;;20.77;78.63
43770;BME280;6597;52.218;9.882;2023-06-19T06:53:02;100331.28;;;20.80;78.02
43770;BME280;6597;52.218;9.882;2023-06-19T06:55:29;100338.06;;;20.84;77.76
43770;BME280;6597;52.218;9.882;2023-06-19T06:57:55;100342.09;;;20.99;78.80
43770;BME280;6597;52.218;9.882;2023-06-19T07:00:22;100344.19;;;21.17;78.99
43770;BME280;6597;52.218;9.882;2023-06-19T07:02:48;100341.31;;;21.29;77.34
43770;BME280;6597;52.218;9.882;2023-06-19T07:05:16;100340.81;;;21.45;77.84
43770;BME280;6597;52.218;9.882;2023-06-19T07:07:44;100344.00;;;21.60;77.20
43770;BME280;6597;52.218;9.882;2023-06-19T07:10:10;100340.81;;;21.75;76.70
43770;BME280;6597;52.218;9.882;2023-06-19T07:12:47;100345.38;;;21.94;75.92
43770;BME280;6597;52.218;9.882;2023-06-19T07:15:15;100351.19;;;22.09;74.49
43770;BME280;6597;52.218;9.882;2023-06-19T07:17:41;100345.47;;;22.23;74.04
43770;BME280;6597;52.218;9.882;2023-06-19T07:20:09;100354.34;;;22.33;74.49
43770;BME280;6597;52.218;9.882;2023-06-19T07:22:36;100357.47;;;22.48;74.06
43770;BME280;6597;52.218;9.882;2023-06-19T07:25:05;100353.81;;;22.59;72.81
43770;BME280;6597;52.218;9.882;2023-06-19T07:27:32;100354.50;;;22.71;69.36
43770;BME280;6597;52.218;9.882;2023-06-19T07:29:58;100360.31;;;22.95;69.45
43770;BME280;6597;52.218;9.882;2023-06-19T07:32:25;100360.25;;;23.24;67.95
43770;BME280;6597;52.218;9.882;2023-06-19T07:34:51;100355.25;;;23.48;69.07
43770;BME280;6597;52.218;9.882;2023-06-19T07:37:18;100361.09;;;23.71;65.73
43770;BME280;6597;52.218;9.882;2023-06-19T07:39:46;100360.50;;;24.05;65.72
43770;BME280;6597;52.218;9.882;2023-06-19T07:42:14;100351.97;;;24.46;63.91
43770;BME280;6597;52.218;9.882;2023-06-19T07:44:41;100356.63;;;24.80;62.78
43770;BME280;6597;52.218;9.882;2023-06-19T07:47:08;100358.91;;;25.10;59.38
43770;BME280;6597;52.218;9.882;2023-06-19T07:49:35;100353.44;;;25.46;57.47
43770;BME280;6597;52.218;9.882;2023-06-19T07:52:02;100357.69;;;25.83;51.25
43770;BME280;6597;52.218;9.882;2023-06-19T07:54:29;100359.63;;;26.07;49.19
43770;BME280;6597;52.218;9.882;2023-06-19T07:56:56;100359.06;;;26.37;49.48
43770;BME280;6597;52.218;9.882;2023-06-19T07:59:24;100363.81;;;26.67;46.95
43770;BME280;6597;52.218;9.882;2023-06-19T08:01:50;100360.41;;;26.98;46.09
43770;BME280;6597;52.218;9.882;2023-06-19T08:04:17;100357.88;;;27.29;47.10
43770;BME280;6597;52.218;9.882;2023-06-19T08:06:43;100358.06;;;27.36;44.12
43770;BME280;6597;52.218;9.882;2023-06-19T08:09:10;100362.59;;;27.43;45.21
43770;BME280;6597;52.218;9.882;2023-06-19T08:11:36;100364.06;;;27.54;45.45
43770;BME280;6597;52.218;9.882;2023-06-19T08:14:03;100371.31;;;27.70;45.58
43770;BME280;6597;52.218;9.882;2023-06-19T08:16:31;100364.75;;;27.72;44.10
43770;BME280;6597;52.218;9.882;2023-06-19T08:18:57;100359.16;;;27.74;44.12
43770;BME280;6597;52.218;9.882;2023-06-19T08:21:24;100362.13;;;27.87;44.98
43770;BME280;6597;52.218;9.882;2023-06-19T08:23:50;100358.06;;;27.99;45.48
43770;BME280;6597;52.218;9.882;2023-06-19T08:26:17;100357.66;;;28.10;44.92
43770;BME280;6597;52.218;9.882;2023-06-19T08:28:44;100349.81;;;28.24;44.48
43770;BME280;6597;52.218;9.882;2023-06-19T08:31:10;100350.34;;;28.50;45.53
43770;BME280;6597;52.218;9.882;2023-06-19T08:33:38;100354.16;;;28.64;44.53
43770;BME280;6597;52.218;9.882;2023-06-19T08:36:05;100356.41;;;28.75;43.56
43770;BME280;6597;52.218;9.882;2023-06-19T08:38:32;100357.88;;;28.86;43.08
43770;BME280;6597;52.218;9.882;2023-06-19T08:40:58;100350.38;;;28.96;43.20
43770;BME280;6597;52.218;9.882;2023-06-19T08:43:25;100347.22;;;29.07;43.22
43770;BME280;6597;52.218;9.882;2023-06-19T08:46:07;100351.41;;;29.24;43.90
43770;BME280;6597;52.218;9.882;2023-06-19T08:48:35;100353.41;;;29.30;43.37
43770;BME280;6597;52.218;9.882;2023-06-19T08:51:03;100345.84;;;29.40;43.48
43770;BME280;6597;52.218;9.882;2023-06-19T08:53:32;100353.63;;;29.58;43.35
43770;BME280;6597;52.218;9.882;2023-06-19T08:55:59;100358.66;;;29.76;43.52
43770;BME280;6597;52.218;9.882;2023-06-19T08:58:26;100347.72;;;29.99;41.97
43770;BME280;6597;52.218;9.882;2023-06-19T09:00:52;100351.19;;;30.08;42.43
43770;BME280;6597;52.218;9.882;2023-06-19T09:03:20;100359.13;;;30.09;42.21
43770;BME280;6597;52.218;9.882;2023-06-19T09:05:47;100352.84;;;30.09;42.85
43770;BME280;6597;52.218;9.882;2023-06-19T09:08:17;100359.75;;;30.26;42.96
43770;BME280;6597;52.218;9.882;2023-06-19T09:10:54;100352.53;;;30.33;43.41
43770;BME280;6597;52.218;9.882;2023-06-19T09:13:21;100349.16;;;30.31;43.17
43770;BME280;6597;52.218;9.882;2023-06-19T09:15:47;100350.94;;;30.24;43.75
43770;BME280;6597;52.218;9.882;2023-06-19T09:18:15;100350.59;;;30.27;44.40
43770;BME280;6597;52.218;9.882;2023-06-19T09:20:42;100358.25;;;30.45;43.62
43770;BME280;6597;52.218;9.882;2023-06-19T09:23:11;100349.59;;;30.56;42.75
43770;BME280;6597;52.218;9.882;2023-06-19T09:25:50;100354.44;;;30.75;42.04
43770;BME280;6597;52.218;9.882;2023-06-19T09:28:18;100354.72;;;30.87;42.17
43770;BME280;6597;52.218;9.882;2023-06-19T09:30:55;100358.22;;;31.02;42.16
43770;BME280;6597;52.218;9.882;2023-06-19T09:33:23;100357.09;;;31.18;41.70
43770;BME280;6597;52.218;9.882;2023-06-19T09:35:50;100356.56;;;31.29;41.66
43770;BME280;6597;52.218;9.882;2023-06-19T09:38:17;100352.63;;;31.32;42.50
43770;BME280;6597;52.218;9.882;2023-06-19T09:40:45;100355.34;;;31.32;41.57
43770;BME280;6597;52.218;9.882;2023-06-19T09:43:18;100357.03;;;31.39;41.27
43770;BME280;6597;52.218;9.882;2023-06-19T09:45:47;100370.41;;;31.41;41.40
43770;BME280;6597;52.218;9.882;2023-06-19T09:48:18;100364.72;;;31.29;40.86
43770;BME280;6597;52.218;9.882;2023-06-19T09:50:54;100366.91;;;31.19;41.54
43770;BME280;6597;52.218;9.882;2023-06-19T09:53:22;100368.06;;;31.10;41.58
43770;BME280;6597;52.218;9.882;2023-06-19T09:55:49;100372.81;;;31.22;42.20
43770;BME280;6597;52.218;9.882;2023-06-19T09:58:19;100376.63;;;31.35;41.82
43770;BME280;6597;52.218;9.882;2023-06-19T10:00:47;100381.81;;;31.30;42.45
43770;BME280;6597;52.218;9.882;2023-06-19T10:03:16;100389.41;;;30.91;41.79
43770;BME280;6597;52.218;9.882;2023-06-19T10:05:43;100384.56;;;30.51;43.41
43770;BME280;6597;52.218;9.882;2023-06-19T10:08:09;100384.56;;;30.15;43.94
43770;BME280;6597;52.218;9.882;2023-06-19T10:10:46;100382.53;;;29.87;45.17
43770;BME280;6597;52.218;9.882;2023-06-19T10:13:14;100386.09;;;29.73;45.70
43770;BME280;6597;52.218;9.882;2023-06-19T10:15:43;100378.25;;;29.49;46.11
43770;BME280;6597;52.218;9.882;2023-06-19T10:18:14;100389.06;;;29.49;46.13
43770;BME280;6597;52.218;9.882;2023-06-19T10:20:43;100393.78;;;29.32;46.21
43770;BME280;6597;52.218;9.882;2023-06-19T10:23:11;100391.22;;;29.16;46.91
43770;BME280;6597;52.218;9.882;2023-06-19T10:25:39;100395.28;;;28.97;47.80
43770;BME280;6597;52.218;9.882;2023-06-19T10:28:16;100395.75;;;29.00;48.26
43770;BME280;6597;52.218;9.882;2023-06-19T10:30:45;100395.31;;;29.26;46.57
43770;BME280;6597;52.218;9.882;2023-06-19T10:33:11;100389.72;;;29.51;46.19
43770;BME280;6597;52.218;9.882;2023-06-19T10:35:39;100380.50;;;29.74;46.13
43770;BME280;6597;52.218;9.882;2023-06-19T10:38:06;100381.31;;;29.90;45.97
43770;BME280;6597;52.218;9.882;2023-06-19T10:40:33;100398.56;;;30.18;46.28
43770;BME280;6597;52.218;9.882;2023-06-19T10:42:59;100396.19;;;30.45;45.79
43770;BME280;6597;52.218;9.882;2023-06-19T10:45:26;100391.47;;;30.68;43.64
43770;BME280;6597;52.218;9.882;2023-06-19T10:47:55;100389.78;;;30.67;43.13
43770;BME280;6597;52.218;9.882;2023-06-19T10:50:22;100383.13;;;30.70;44.40
43770;BME280;6597;52.218;9.882;2023-06-19T10:52:53;100385.53;;;30.79;43.79
43770;BME280;6597;52.218;9.882;2023-06-19T10:55:20;100385.25;;;30.74;43.21
43770;BME280;6597;52.218;9.882;2023-06-19T10:57:48;100381.41;;;30.62;44.57
43770;BME280;6597;52.218;9.882;2023-06-19T11:00:26;100385.41;;;30.66;44.25
43770;BME280;6597;52.218;9.882;2023-06-19T11:02:52;100380.78;;;30.88;43.96
43770;BME280;6597;52.218;9.882;2023-06-19T11:05:21;100372.47;;;30.89;43.50
43770;BME280;6597;52.218;9.882;2023-06-19T11:07:52;100382.41;;;30.82;43.41
43770;BME280;6597;52.218;9.882;2023-06-19T11:10:19;100383.59;;;30.73;43.93
43770;BME280;6597;52.218;9.882;2023-06-19T11:12:46;100386.44;;;30.65;44.35
43770;BME280;6597;52.218;9.882;2023-06-19T11:15:13;100382.59;;;30.59;44.21
43770;BME280;6597;52.218;9.882;2023-06-19T11:17:40;100376.78;;;30.41;44.82
43770;BME280;6597;52.218;9.882;2023-06-19T11:20:09;100386.25;;;30.16;45.37
43770;BME280;6597;52.218;9.882;2023-06-19T11:22:39;100389.28;;;30.06;45.50
43770;BME280;6597;52.218;9.882;2023-06-19T11:25:07;100391.69;;;30.01;46.29
43770;BME280;6597;52.218;9.882;2023-06-19T11:27:37;100383.00;;;30.06;45.26
43770;BME280;6597;52.218;9.882;2023-06-19T11:30:05;100395.28;;;30.23;44.91
43770;BME280;6597;52.218;9.882;2023-06-19T11:32:34;100392.19;;;30.41;44.36
43770;BME280;6597;52.218;9.882;2023-06-19T11:35:07;100397.66;;;30.47;43.20
43770;BME280;6597;52.218;9.882;2023-06-19T11:37:34;100390.25;;;30.71;43.17
43770;BME280;6597;52.218;9.882;2023-06-19T11:40:03;100404.50;;;30.79;41.11
43770;BME280;6597;52.218;9.882;2023-06-19T11:42:45;100400.44;;;30.90;40.77
43770;BME280;6597;52.218;9.882;2023-06-19T11:45:11;100393.84;;;30.99;41.90
43770;BME280;6597;52.218;9.882;2023-06-19T11:47:38;100415.13;;;31.02;41.69
43770;BME280;6597;52.218;9.882;2023-06-19T11:50:06;100408.38;;;30.91;39.79
43770;BME280;6597;52.218;9.882;2023-06-19T11:52:34;100406.97;;;30.59;40.55
43770;BME280;6597;52.218;9.882;2023-06-19T11:55:01;100407.72;;;30.53;41.12
43770;BME280;6597;52.218;9.882;2023-06-19T11:57:29;100398.31;;;30.49;41.71
43770;BME280;6597;52.218;9.882;2023-06-19T11:59:55;100406.09;;;30.74;42.66
43770;BME280;6597;52.218;9.882;2023-06-19T12:02:22;100399.06;;;31.01;41.57
43770;BME280;6597;52.218;9.882;2023-06-19T12:04:48;100390.66;;;31.17;40.42
43770;BME280;6597;52.218;9.882;2023-06-19T12:07:15;100396.25;;;31.37;41.02
43770;BME280;6597;52.218;9.882;2023-06-19T12:09:41;100398.22;;;31.49;39.45
43770;BME280;6597;52.218;9.882;2023-06-19T12:12:09;100402.75;;;31.70;39.53
43770;BME280;6597;52.218;9.882;2023-06-19T12:14:37;100402.75;;;31.70;39.38
43770;BME280;6597;52.218;9.882;2023-06-19T12:17:05;100409.91;;;31.78;39.18
43770;BME280;6597;52.218;9.882;2023-06-19T12:19:31;100408.91;;;31.85;39.86
43770;BME280;6597;52.218;9.882;2023-06-19T12:21:58;100408.47;;;31.54;39.50
43770;BME280;6597;52.218;9.882;2023-06-19T12:24:24;100406.50;;;31.41;40.56
43770;BME280;6597;52.218;9.882;2023-06-19T12:26:51;100405.72;;;31.19;40.79
43770;BME280;6597;52.218;9.882;2023-06-19T12:29:18;100394.94;;;31.26;40.06
43770;BME280;6597;52.218;9.882;2023-06-19T12:31:47;100399.84;;;31.44;39.38
43770;BME280;6597;52.218;9.882;2023-06-19T12:34:13;100403.25;;;31.52;40.06
43770;BME280;6597;52.218;9.882;2023-06-19T12:36:42;100391.72;;;31.44;39.70
43770;BME280;6597;52.218;9.882;2023-06-19T12:39:09;100400.94;;;31.49;40.26
43770;BME280;6597;52.218;9.882;2023-06-19T12:41:41;100402.03;;;31.55;39.08
43770;BME280;6597;52.218;9.882;2023-06-19T12:44:08;100408.66;;;31.52;39.01
43770;BME280;6597;52.218;9.882;2023-06-19T12:46:35;100412.50;;;31.58;40.64
43770;BME280;6597;52.218;9.882;2023-06-19T12:49:02;100411.63;;;31.85;39.27
43770;BME280;6597;52.218;9.882;2023-06-19T12:51:29;100407.75;;;32.08;38.52
43770;BME280;6597;52.218;9.882;2023-06-19T12:53:55;100404.00;;;32.09;39.44
43770;BME280;6597;52.218;9.882;2023-06-19T12:56:22;100413.16;;;32.01;39.61
43770;BME280;6597;52.218;9.882;2023-06-19T12:58:49;100415.03;;;31.94;39.65
43770;BME280;6597;52.218;9.882;2023-06-19T13:01:15;100398.13;;;31.99;39.46
43770;BME280;6597;52.218;9.882;2023-06-19T13:03:42;100405.25;;;32.06;39.89